aviador You're here:

KASH Decoded Metar

NASHUA/BOIRE FLD in NH, USA
Report Time2017-08-18 17:56:00
UTC Time2017-08-18 18:18:09
Flight Rules ifr IFR
WindCalm
Visibility3219 m
Phenomena:Light Rain
Mist
Clouds:Overcast 005 Hf
Ceiling500 ft
Temp22°C (ISA +7)
Dew Point22°C (100% RH)
QNH1011 hPa
Density Alt1,476 ft
Elevation200 ft
Report Wrong Elevation
Raw Report
METAR KASH 181756Z 00000KT 2SM -RA BR OVC005 22/22 A2986 RMK AO2 RAB16
SLP122 P0000 60059 T02220217 10222 20183 58014=

Extra information for KASH:More info

Metar Taf Metar & Taf Last 4 Metars F.Rules Stats Wind Profile Meteogram Temp Stats Airport Information Weather charts Add Link Nearby VenuesMetar ALERT Operation Metar Decoded Social comments

AIRNAV info for KASH